Santa Cruz, Texas
Current Conditions -  °F | °C
As of 7:15 AM on Thursday 27 Nov 2014 (Local Time) from KEBG Reporting Station
Moderate Fog Moderate Fog  
Wind Chill: 44°   Ceiling: 100
Heat Index: 44°   Visibility: 0.5mi
Dew Point: 42°   Wind: 0mph
Humidity: 93%   Direction: NA
Pressure: 30.38"   Gusts: NA
Location:  26.5735°N, 98.695°W
Report Text: KEBG 271315Z AUTO 00000KT 1/2SM FG BKN001 07/06 A3038 RMK AO2 T00660055
Loading
Personal Weather Stations






























Interactive Weather Map New forecast layout! Learn more

10-Day Weather Forecast

Advertisements
Track Severe Weather on mobile